Terminal Aerodrome Forecast
Issued by NWS Pittsburgh, PA

Current Version | Previous Version | Text Only | Print | Product List | Glossary Off
Versions: 1 2 3 4 5 6 7 8 9 10 11 12 13 14 15 16 17 18 19 20 21 22 23 24 25 26 27 28

058
FTUS41 KPBZ 091121
TAFPIT
TAF
KPIT 091121Z 0912/1018 22006KT P6SM BKN250
     FM092200 26009KT P6SM OVC080
     FM100300 25012G18KT 5SM -SN OVC010
     FM101300 28012G20KT P6SM OVC015=

USA.gov is the U.S. government's official web portal to all federal, state and local government web resources and services.